Moody, Missouri
Current Conditions -  °F | °C
As of 6:53 PM on Wednesday 17 Dec 2014 (Local Time) from KUNO Reporting Station
Light Rain Light Rain  
Wind Chill:   Ceiling: 6000
Heat Index:   Visibility: 9mi
Dew Point: -1°   Wind: 5mph
Humidity: 79%   Direction: 80°E
Pressure: 30.21"   Gusts: NA
Location:  36.53°N, 91.99°W
Report Text: KUNO 180053Z AUTO 08004KT 9SM -RA OVC060 02/M01 A3021 RMK AO2 RAE14B41UPB14E41 SLP241 P0003 T00221011
Loading
Personal Weather Stations






























Interactive Weather Map New forecast layout! Learn more

10-Day Weather Forecast

Advertisements
Track Severe Weather on mobile